createdAt,value
2019-02-11T00:00:39.284Z,32.70
2019-02-11T00:03:07.974Z,33.00
2019-02-11T00:05:36.464Z,33.70
2019-02-11T00:08:05.243Z,34.03
2019-02-11T00:10:34.031Z,34.63
2019-02-11T00:13:10.138Z,34.20
2019-02-11T00:15:33.055Z,34.70
2019-02-11T00:18:01.438Z,34.70
2019-02-11T00:20:29.819Z,35.03
2019-02-11T00:22:58.407Z,34.53
2019-02-11T00:25:26.881Z,36.20
2019-02-11T00:27:55.858Z,35.93
2019-02-11T00:30:24.507Z,35.87
2019-02-11T00:32:52.946Z,35.23
2019-02-11T00:35:21.614Z,36.33
2019-02-11T00:37:50.396Z,35.40
2019-02-11T00:40:19.079Z,35.73
2019-02-11T00:42:47.479Z,35.07
2019-02-11T00:45:16.144Z,35.00
2019-02-11T00:47:44.544Z,35.63
2019-02-11T00:50:13.211Z,35.97
2019-02-11T00:52:41.600Z,37.23
2019-02-11T00:55:10.280Z,38.03
2019-02-11T00:57:38.783Z,37.50
2019-02-11T01:00:12.019Z,38.03
2019-02-11T01:02:40.740Z,38.37
2019-02-11T01:05:09.199Z,36.23
2019-02-11T01:07:37.589Z,35.40
2019-02-11T01:10:08.830Z,34.40
2019-02-11T01:12:37.223Z,34.67
2019-02-11T01:15:08.908Z,32.73
2019-02-11T01:17:38.180Z,31.83
2019-02-11T01:20:11.361Z,31.90
2019-02-11T01:22:40.061Z,30.80
2019-02-11T01:25:09.399Z,31.40
2019-02-11T01:27:37.783Z,29.37
2019-02-11T01:30:09.525Z,28.43
2019-02-11T01:32:37.958Z,28.00
2019-02-11T01:35:07.382Z,27.17
2019-02-11T01:37:35.794Z,27.80
2019-02-11T01:40:06.555Z,26.13
2019-02-11T01:42:35.180Z,26.83
2019-02-11T01:45:04.627Z,26.40
2019-02-11T01:47:33.374Z,27.53
2019-02-11T01:50:01.792Z,27.43
2019-02-11T01:52:30.441Z,27.60
2019-02-11T01:54:59.126Z,25.70
2019-02-11T01:57:27.530Z,26.23
2019-02-11T01:59:56.008Z,26.47
2019-02-11T02:02:24.486Z,27.13
2019-02-11T02:04:52.944Z,27.00
2019-02-11T02:07:21.408Z,26.00
2019-02-11T02:09:49.888Z,26.57
2019-02-11T02:12:18.705Z,27.67
2019-02-11T02:14:47.090Z,27.57
2019-02-11T02:17:15.574Z,28.53
2019-02-11T02:19:44.404Z,28.63
2019-02-11T02:22:12.793Z,27.97
2019-02-11T02:24:41.184Z,28.17
2019-02-11T02:27:10.000Z,28.17
2019-02-11T02:29:38.488Z,27.97
2019-02-11T02:32:07.369Z,27.70
2019-02-11T02:34:36.053Z,29.00
2019-02-11T02:37:04.438Z,29.53
2019-02-11T02:39:33.145Z,30.83
2019-02-11T02:42:02.014Z,31.90
2019-02-11T02:44:30.619Z,31.40
2019-02-11T02:46:59.284Z,32.33
2019-02-11T02:49:27.965Z,31.63
2019-02-11T02:51:56.658Z,31.23
2019-02-11T02:54:25.038Z,31.57
2019-02-11T02:56:53.435Z,29.63
2019-02-11T02:59:21.903Z,29.70
2019-02-11T03:01:50.688Z,28.63
2019-02-11T03:04:19.070Z,28.13
2019-02-11T03:06:47.749Z,28.80
2019-02-11T03:09:16.126Z,27.33
2019-02-11T03:11:44.593Z,28.43
2019-02-11T03:14:12.982Z,27.33
2019-02-11T03:16:41.387Z,26.00
2019-02-11T03:19:09.860Z,27.00
2019-02-11T03:21:38.266Z,25.63
2019-02-11T03:24:06.753Z,24.30
2019-02-11T03:26:35.167Z,25.07
2019-02-11T03:29:03.568Z,24.13
2019-02-11T03:31:31.956Z,24.47
2019-02-11T03:34:00.345Z,24.97
2019-02-11T03:36:29.010Z,24.60
2019-02-11T03:38:57.429Z,23.50
2019-02-11T03:41:26.281Z,21.83
2019-02-11T03:43:54.665Z,22.00
2019-02-11T03:46:23.063Z,21.43
2019-02-11T03:48:51.449Z,21.87
2019-02-11T03:51:19.838Z,20.50
2019-02-11T03:53:48.243Z,21.50
2019-02-11T03:56:17.281Z,21.57
2019-02-11T03:58:46.054Z,23.13
2019-02-11T04:01:14.443Z,23.70
2019-02-11T04:03:42.950Z,26.97
2019-02-11T04:06:11.327Z,27.23
2019-02-11T04:08:40.099Z,28.97
2019-02-11T04:11:08.511Z,29.93
2019-02-11T04:13:36.894Z,29.73
2019-02-11T04:16:05.533Z,30.53
2019-02-11T04:18:34.222Z,31.20
2019-02-11T04:21:02.904Z,30.00
2019-02-11T04:23:31.309Z,32.40
2019-02-11T04:25:59.704Z,31.30
2019-02-11T04:28:28.120Z,34.23
2019-02-11T04:30:56.515Z,30.30
2019-02-11T04:33:24.898Z,30.63
2019-02-11T04:35:53.306Z,30.43
2019-02-11T04:38:21.964Z,32.67
2019-02-11T04:40:50.345Z,30.17
2019-02-11T04:43:18.816Z,30.50
2019-02-11T04:45:47.236Z,30.00
2019-02-11T04:48:15.625Z,32.50
2019-02-11T04:50:44.011Z,28.03
2019-02-11T04:53:12.410Z,29.17
2019-02-11T04:55:40.865Z,27.53
2019-02-11T04:58:09.579Z,34.10
2019-02-11T05:00:38.198Z,27.33
2019-02-11T05:03:06.604Z,34.80
2019-02-11T05:05:35.260Z,26.33
2019-02-11T05:08:04.193Z,27.27
2019-02-11T05:10:32.586Z,27.43
2019-02-11T05:13:00.970Z,25.13
2019-02-11T05:15:29.700Z,28.23
2019-02-11T05:17:58.484Z,28.43
2019-02-11T05:20:27.119Z,24.00
2019-02-11T05:22:55.792Z,29.60
2019-02-11T05:25:24.177Z,22.73
2019-02-11T05:27:52.564Z,23.47
2019-02-11T05:30:21.311Z,27.30
2019-02-11T05:32:49.919Z,21.87
2019-02-11T05:35:18.566Z,22.43
2019-02-11T05:37:46.955Z,26.20
2019-02-11T05:40:15.368Z,23.47
2019-02-11T05:42:43.764Z,22.47
2019-02-11T05:45:12.148Z,22.17
2019-02-11T05:47:40.802Z,22.70
2019-02-11T05:50:11.441Z,20.93
2019-02-11T05:52:39.818Z,20.47
2019-02-11T05:55:08.704Z,19.63
2019-02-11T05:57:37.093Z,20.97
2019-02-11T06:00:12.477Z,23.00
2019-02-11T06:02:40.865Z,20.30
2019-02-11T06:05:09.362Z,21.80
2019-02-11T06:07:37.755Z,20.33
2019-02-11T06:10:09.572Z,21.23
2019-02-11T06:12:37.976Z,19.73
2019-02-11T06:15:08.288Z,20.40
2019-02-11T06:17:37.397Z,19.10
2019-02-11T06:20:10.885Z,18.70
2019-02-11T06:22:39.263Z,18.37
2019-02-11T06:25:09.198Z,21.43
2019-02-11T06:27:37.790Z,17.93
2019-02-11T06:30:09.775Z,21.90
2019-02-11T06:32:38.393Z,21.43
2019-02-11T06:35:08.437Z,15.57
2019-02-11T06:37:37.055Z,24.60
2019-02-11T06:40:08.487Z,28.77
2019-02-11T06:42:36.878Z,21.50
2019-02-11T06:45:13.306Z,17.50
2019-02-11T06:47:38.840Z,20.00
2019-02-11T06:50:15.152Z,25.23
2019-02-11T06:52:43.788Z,17.80
2019-02-11T06:55:12.667Z,19.77
2019-02-11T06:57:41.062Z,19.40
2019-02-11T07:00:14.453Z,19.37
2019-02-11T07:02:42.864Z,22.00
2019-02-11T07:05:11.249Z,20.63
2019-02-11T07:07:39.895Z,34.20
2019-02-11T07:10:12.074Z,19.50
2019-02-11T07:12:40.750Z,22.47
2019-02-11T07:15:21.554Z,17.53
2019-02-11T07:17:44.702Z,26.37
2019-02-11T07:20:13.189Z,20.30
2019-02-11T07:22:41.841Z,24.43
2019-02-11T07:25:10.545Z,21.30
2019-02-11T07:27:39.235Z,20.37
2019-02-11T07:30:11.086Z,18.30
2019-02-11T07:32:39.494Z,22.40
2019-02-11T07:35:08.343Z,31.43
2019-02-11T07:37:36.740Z,22.90
2019-02-11T07:40:08.522Z,24.60
2019-02-11T07:42:38.528Z,23.80
2019-02-11T07:45:11.102Z,20.70
2019-02-11T07:47:39.502Z,21.83
2019-02-11T07:50:08.377Z,23.13
2019-02-11T07:52:37.138Z,24.63
2019-02-11T07:55:06.194Z,24.10
2019-02-11T07:57:34.920Z,23.57
2019-02-11T08:00:03.586Z,33.83
2019-02-11T08:02:32.014Z,24.40
2019-02-11T08:05:00.407Z,23.30
2019-02-11T08:07:28.813Z,26.10
2019-02-11T08:09:59.712Z,23.70
2019-02-11T08:12:28.107Z,25.47
2019-02-11T08:14:56.747Z,24.50
2019-02-11T08:17:25.130Z,24.60
2019-02-11T08:19:53.513Z,24.60
2019-02-11T08:22:22.186Z,23.77
2019-02-11T08:24:50.570Z,28.60
2019-02-11T08:27:18.972Z,26.13
2019-02-11T08:29:48.260Z,26.53
2019-02-11T08:32:16.645Z,25.20
2019-02-11T08:34:45.315Z,24.23
2019-02-11T08:37:13.721Z,23.20
2019-02-11T08:39:42.485Z,26.33
2019-02-11T08:42:11.173Z,23.73
2019-02-11T08:44:39.558Z,22.57
2019-02-11T08:47:07.954Z,23.37
2019-02-11T08:49:36.614Z,24.40
2019-02-11T08:52:05.016Z,29.07
2019-02-11T08:54:33.675Z,25.20
2019-02-11T08:57:02.077Z,24.23
2019-02-11T08:59:30.567Z,22.53
2019-02-11T09:01:59.290Z,23.80
2019-02-11T09:04:30.979Z,23.27
2019-02-11T09:06:59.367Z,22.63
2019-02-11T09:09:27.755Z,23.93
2019-02-11T09:11:56.168Z,23.53
2019-02-11T09:14:24.561Z,23.37
2019-02-11T09:16:52.997Z,24.40
2019-02-11T09:19:21.396Z,23.73
2019-02-11T09:21:49.786Z,22.00
2019-02-11T09:24:18.191Z,24.10
2019-02-11T09:26:46.571Z,21.30
2019-02-11T09:29:14.957Z,28.13
2019-02-11T09:31:43.660Z,22.77
2019-02-11T09:34:12.343Z,22.37
2019-02-11T09:36:40.895Z,27.50
2019-02-11T09:39:09.639Z,21.33
2019-02-11T09:41:38.448Z,21.60
2019-02-11T09:44:06.821Z,22.00
2019-02-11T09:46:35.475Z,19.70
2019-02-11T09:49:04.060Z,21.10
2019-02-11T09:51:33.579Z,20.30
2019-02-11T09:54:01.966Z,21.90
2019-02-11T09:56:30.367Z,22.23
2019-02-11T09:58:58.779Z,22.77
2019-02-11T10:01:27.156Z,24.93
2019-02-11T10:03:55.872Z,21.10
2019-02-11T10:06:24.558Z,20.40
2019-02-11T10:08:53.052Z,21.47
2019-02-11T10:11:21.717Z,25.10
2019-02-11T10:13:50.405Z,20.13
2019-02-11T10:16:19.399Z,20.50
2019-02-11T10:18:47.781Z,23.90
2019-02-11T10:21:16.463Z,20.67
2019-02-11T10:23:45.157Z,21.90
2019-02-11T10:26:14.034Z,24.67
2019-02-11T10:28:42.876Z,20.27
2019-02-11T10:31:12.134Z,19.73
2019-02-11T10:33:40.904Z,21.97
2019-02-11T10:36:09.436Z,21.10
2019-02-11T10:38:38.075Z,19.73
2019-02-11T10:41:06.704Z,22.17
2019-02-11T10:43:35.098Z,22.40
2019-02-11T10:46:03.557Z,19.63
2019-02-11T10:48:32.224Z,26.23
2019-02-11T10:51:00.904Z,21.13
2019-02-11T10:53:29.427Z,20.13
2019-02-11T10:55:58.288Z,18.07
2019-02-11T10:58:26.742Z,17.47
2019-02-11T11:00:55.314Z,22.77
2019-02-11T11:03:24.359Z,20.97
2019-02-11T11:05:52.925Z,20.27
2019-02-11T11:08:22.361Z,17.47
2019-02-11T11:10:50.744Z,16.30
2019-02-11T11:13:19.223Z,17.67
2019-02-11T11:15:47.678Z,16.67
2019-02-11T11:18:16.079Z,16.87
2019-02-11T11:20:44.837Z,16.33
2019-02-11T11:23:15.064Z,16.37
2019-02-11T11:25:44.148Z,16.27
2019-02-11T11:28:12.546Z,16.37
2019-02-11T11:30:41.521Z,21.30
2019-02-11T11:33:09.920Z,16.00
2019-02-11T11:35:38.305Z,18.83
2019-02-11T11:38:06.883Z,15.50
2019-02-11T11:40:35.409Z,19.17
2019-02-11T11:43:04.804Z,15.87
2019-02-11T11:45:33.886Z,15.27
2019-02-11T11:48:02.711Z,15.73
2019-02-11T11:50:31.139Z,15.47
2019-02-11T11:53:00.078Z,16.00
2019-02-11T11:55:28.471Z,15.90
2019-02-11T11:57:56.955Z,17.17
2019-02-11T12:00:30.075Z,16.93
2019-02-11T12:03:02.716Z,19.10
2019-02-11T12:05:28.756Z,17.13
2019-02-11T12:07:57.244Z,16.97
2019-02-11T12:10:26.022Z,18.20
2019-02-11T12:12:54.763Z,16.47
2019-02-11T12:15:25.404Z,18.30
2019-02-11T12:17:54.514Z,18.70
2019-02-11T12:20:23.019Z,19.90
2019-02-11T12:22:51.414Z,20.27
2019-02-11T12:25:19.924Z,19.67
2019-02-11T12:27:48.490Z,19.80
2019-02-11T12:30:25.304Z,22.83
2019-02-11T12:32:55.716Z,25.17
2019-02-11T12:35:24.564Z,25.13
2019-02-11T12:37:52.955Z,26.10
2019-02-11T12:40:21.379Z,27.77
2019-02-11T12:42:52.526Z,27.67
2019-02-11T12:45:22.753Z,27.47
2019-02-11T12:47:51.476Z,27.40
2019-02-11T12:50:19.884Z,29.50
2019-02-11T12:52:48.631Z,30.90
2019-02-11T12:55:18.291Z,30.67
2019-02-11T12:57:46.722Z,27.73
2019-02-11T13:00:21.399Z,26.93
2019-02-11T13:02:49.915Z,24.40
2019-02-11T13:05:22.030Z,22.57
2019-02-11T13:07:48.684Z,22.67
2019-02-11T13:10:20.432Z,22.80
2019-02-11T13:12:49.321Z,22.73
2019-02-11T13:15:58.986Z,23.30
2019-02-11T13:17:49.801Z,23.57
2019-02-11T13:20:19.249Z,25.20
2019-02-11T13:22:48.124Z,24.47
2019-02-11T13:25:18.868Z,26.17
2019-02-11T13:27:49.726Z,24.53
2019-02-11T13:30:23.603Z,24.03
2019-02-11T13:32:51.999Z,24.73
2019-02-11T13:35:22.307Z,22.87
2019-02-11T13:37:54.667Z,22.90
2019-02-11T13:40:20.862Z,22.93
2019-02-11T13:42:49.292Z,21.73
2019-02-11T13:45:20.691Z,22.83
2019-02-11T13:47:55.341Z,23.00
2019-02-11T13:50:25.039Z,21.47
2019-02-11T13:52:54.250Z,20.07
2019-02-11T13:55:23.353Z,21.37
2019-02-11T13:57:52.395Z,21.53
2019-02-11T14:00:31.710Z,20.13
2019-02-11T14:03:02.835Z,19.23
2019-02-11T14:05:32.174Z,17.70
2019-02-11T14:08:01.746Z,17.73
2019-02-11T14:10:31.254Z,17.93
2019-02-11T14:13:00.258Z,17.87
2019-02-11T14:15:29.121Z,18.37
2019-02-11T14:18:12.083Z,17.60
2019-02-11T14:20:33.615Z,17.50
2019-02-11T14:23:02.033Z,17.00
2019-02-11T14:25:42.453Z,16.30
2019-02-11T14:28:00.833Z,17.07
2019-02-11T14:30:29.232Z,20.80
2019-02-11T14:32:57.628Z,17.53
2019-02-11T14:35:26.099Z,17.50
2019-02-11T14:37:54.544Z,16.53
2019-02-11T14:40:23.124Z,16.00
2019-02-11T14:42:51.587Z,15.43
2019-02-11T14:45:21.250Z,15.90
2019-02-11T14:47:49.796Z,16.70
2019-02-11T14:50:18.243Z,16.00
2019-02-11T14:52:46.921Z,16.37
2019-02-11T14:55:15.632Z,15.47
2019-02-11T14:57:45.022Z,16.60
2019-02-11T15:00:17.630Z,17.40
2019-02-11T15:02:46.399Z,16.67
2019-02-11T15:05:15.223Z,16.97
2019-02-11T15:07:43.684Z,15.97
2019-02-11T15:10:13.026Z,16.60
2019-02-11T15:12:41.728Z,15.07
2019-02-11T15:15:11.463Z,15.53
2019-02-11T15:17:41.291Z,14.80
2019-02-11T15:20:14.367Z,15.80
2019-02-11T15:22:42.995Z,15.10
2019-02-11T15:25:16.216Z,16.17
2019-02-11T15:27:44.836Z,15.40
2019-02-11T15:30:20.171Z,14.83
2019-02-11T15:32:48.654Z,16.23
2019-02-11T15:35:17.114Z,16.87
2019-02-11T15:37:45.530Z,17.80
2019-02-11T15:40:17.019Z,17.33
2019-02-11T15:42:45.533Z,17.93
2019-02-11T15:45:15.430Z,18.23
2019-02-11T15:47:44.045Z,17.80
2019-02-11T15:50:15.274Z,17.50
2019-02-11T15:52:43.769Z,17.33
2019-02-11T15:55:22.460Z,16.87
2019-02-11T15:57:50.931Z,17.00
2019-02-11T16:00:24.045Z,17.00
2019-02-11T16:02:52.798Z,17.50
2019-02-11T16:05:21.190Z,19.07
2019-02-11T16:07:49.633Z,17.20
2019-02-11T16:10:23.919Z,21.60
2019-02-11T16:12:52.324Z,16.30
2019-02-11T16:15:20.718Z,19.30
2019-02-11T16:17:49.280Z,19.77
2019-02-11T16:20:17.950Z,19.20
2019-02-11T16:22:46.431Z,17.40
2019-02-11T16:25:15.751Z,17.10
2019-02-11T16:27:44.403Z,17.40
2019-02-11T16:30:18.003Z,19.67
2019-02-11T16:32:46.455Z,18.70
2019-02-11T16:35:16.594Z,23.07
2019-02-11T16:37:44.994Z,19.87
2019-02-11T16:40:27.794Z,26.33
2019-02-11T16:42:56.206Z,18.93
2019-02-11T16:45:24.647Z,22.90
2019-02-11T16:47:53.048Z,19.10
2019-02-11T16:50:21.444Z,18.83
2019-02-11T16:52:49.827Z,21.90
2019-02-11T16:55:18.234Z,20.70
2019-02-11T16:57:46.670Z,19.87
2019-02-11T17:00:17.612Z,19.03
2019-02-11T17:02:46.014Z,22.90
2019-02-11T17:05:14.992Z,20.33
2019-02-11T17:07:43.516Z,16.50
2019-02-11T17:10:15.765Z,13.97
2019-02-11T17:12:44.236Z,16.53
2019-02-11T17:15:15.400Z,13.43
2019-02-11T17:17:43.811Z,14.23
2019-02-11T17:20:14.382Z,20.67
2019-02-11T17:22:43.005Z,11.83
2019-02-11T17:25:12.516Z,13.03
2019-02-11T17:27:40.901Z,21.47
2019-02-11T17:30:21.082Z,13.90
2019-02-11T17:32:49.477Z,13.63
2019-02-11T17:35:17.872Z,14.97
2019-02-11T17:37:46.257Z,14.10
2019-02-11T17:40:14.892Z,13.33
2019-02-11T17:42:43.291Z,13.20
2019-02-11T17:45:17.442Z,12.33
2019-02-11T17:47:46.081Z,16.07
2019-02-11T17:50:14.961Z,19.20
2019-02-11T17:52:43.776Z,13.37
2019-02-11T17:55:14.006Z,14.57
2019-02-11T17:57:42.475Z,18.67
2019-02-11T18:00:24.910Z,16.30
2019-02-11T18:02:53.311Z,12.97
2019-02-11T18:05:22.045Z,16.30
2019-02-11T18:07:50.655Z,13.60
2019-02-11T18:10:19.034Z,16.53
2019-02-11T18:12:47.500Z,15.17
2019-02-11T18:15:15.892Z,14.87
2019-02-11T18:17:44.375Z,13.00
2019-02-11T18:20:12.774Z,20.40
2019-02-11T18:22:41.820Z,15.57
2019-02-11T18:25:10.886Z,16.70
2019-02-11T18:27:39.615Z,15.20
2019-02-11T18:30:14.098Z,16.20
2019-02-11T18:32:42.631Z,14.67
2019-02-11T18:35:14.131Z,17.80
2019-02-11T18:37:42.519Z,13.10
2019-02-11T18:40:15.505Z,15.37
2019-02-11T18:42:44.670Z,13.80
2019-02-11T18:45:17.287Z,18.20
2019-02-11T18:47:45.682Z,13.40
2019-02-11T18:50:17.336Z,15.60
2019-02-11T18:52:45.952Z,12.90
2019-02-11T18:55:17.352Z,13.57
2019-02-11T18:57:45.947Z,13.70
2019-02-11T19:00:18.422Z,14.23
2019-02-11T19:02:47.565Z,15.97
2019-02-11T19:05:17.133Z,15.40
2019-02-11T19:07:45.656Z,15.37
2019-02-11T19:10:16.163Z,14.03
2019-02-11T19:12:44.707Z,18.10
2019-02-11T19:15:15.724Z,17.83
2019-02-11T19:17:44.279Z,14.53
2019-02-11T19:20:14.995Z,16.67
2019-02-11T19:22:43.376Z,14.30
2019-02-11T19:25:12.842Z,14.87
2019-02-11T19:27:41.478Z,14.60
2019-02-11T19:30:15.722Z,14.57
2019-02-11T19:32:44.109Z,15.90
2019-02-11T19:35:12.514Z,14.43
2019-02-11T19:37:40.946Z,16.23
2019-02-11T19:40:14.899Z,15.23
2019-02-11T19:42:43.425Z,13.70
2019-02-11T19:45:14.768Z,16.03
2019-02-11T19:47:43.810Z,15.70
2019-02-11T19:50:14.471Z,15.17
2019-02-11T19:52:43.124Z,16.50
2019-02-11T19:55:13.907Z,15.97
2019-02-11T19:57:42.354Z,16.83
2019-02-11T20:00:19.819Z,17.20
2019-02-11T20:02:49.044Z,16.90
2019-02-11T20:05:17.632Z,18.27
2019-02-11T20:07:46.236Z,18.07
2019-02-11T20:10:20.009Z,17.93
2019-02-11T20:12:48.743Z,18.17
2019-02-11T20:15:30.675Z,17.27
2019-02-11T20:17:59.159Z,20.70
2019-02-11T20:20:27.605Z,18.17
2019-02-11T20:22:56.056Z,20.10
2019-02-11T20:25:24.467Z,24.27
2019-02-11T20:27:53.042Z,31.77
2019-02-11T20:30:32.534Z,24.07
2019-02-11T20:33:01.018Z,25.80
2019-02-11T20:35:29.479Z,33.90
2019-02-11T20:37:59.013Z,25.47
2019-02-11T20:40:30.917Z,22.80
2019-02-11T20:42:59.307Z,22.07
2019-02-11T20:45:29.100Z,23.20
2019-02-11T20:47:57.514Z,24.90
2019-02-11T20:50:25.896Z,32.80
2019-02-11T20:52:54.300Z,26.27
2019-02-11T20:55:22.759Z,23.57
2019-02-11T20:57:53.906Z,30.30
2019-02-11T21:00:24.456Z,24.13
2019-02-11T21:02:52.834Z,23.03
2019-02-11T21:05:21.776Z,22.30
2019-02-11T21:07:50.165Z,22.40
2019-02-11T21:10:21.029Z,21.47
2019-02-11T21:12:49.438Z,21.63
2019-02-11T21:15:17.899Z,21.43
2019-02-11T21:17:46.356Z,21.53
2019-02-11T21:20:32.793Z,19.93
2019-02-11T21:23:01.192Z,23.43
2019-02-11T21:25:29.999Z,19.07
2019-02-11T21:27:58.403Z,20.80
2019-02-11T21:30:26.895Z,20.93
2019-02-11T21:32:55.364Z,21.93
2019-02-11T21:35:23.998Z,20.67
2019-02-11T21:37:52.379Z,24.83
2019-02-11T21:40:20.824Z,26.80
2019-02-11T21:42:49.204Z,23.90
2019-02-11T21:45:17.586Z,24.20
2019-02-11T21:47:45.982Z,26.23
2019-02-11T21:50:26.474Z,24.13
2019-02-11T21:52:50.573Z,23.67
2019-02-11T21:55:24.173Z,26.00
2019-02-11T21:57:52.844Z,23.40
2019-02-11T22:00:22.492Z,23.40
2019-02-11T22:02:50.877Z,27.20
2019-02-11T22:05:19.273Z,23.77
2019-02-11T22:07:47.671Z,23.37
2019-02-11T22:10:21.909Z,26.83
2019-02-11T22:12:50.368Z,22.90
2019-02-11T22:15:18.944Z,23.80
2019-02-11T22:17:47.387Z,28.03
2019-02-11T22:20:20.713Z,22.93
2019-02-11T22:22:49.183Z,24.47
2019-02-11T22:25:17.821Z,26.70
2019-02-11T22:27:46.209Z,26.13
2019-02-11T22:30:20.213Z,28.07
2019-02-11T22:32:48.618Z,27.70
2019-02-11T22:35:17.072Z,30.53
2019-02-11T22:37:46.296Z,24.70
2019-02-11T22:40:16.235Z,23.53
2019-02-11T22:42:44.647Z,23.97
2019-02-11T22:45:17.952Z,22.77
2019-02-11T22:47:46.589Z,25.13
2019-02-11T22:50:14.966Z,23.30
2019-02-11T22:52:43.358Z,23.90
2019-02-11T22:55:13.586Z,24.17
2019-02-11T22:57:42.315Z,24.13
2019-02-11T23:00:24.499Z,27.87
2019-02-11T23:02:52.899Z,22.77
2019-02-11T23:05:21.577Z,22.87
2019-02-11T23:07:50.196Z,28.50
2019-02-11T23:10:19.065Z,22.70
2019-02-11T23:12:47.547Z,22.50
2019-02-11T23:15:16.245Z,23.50
2019-02-11T23:17:44.637Z,22.90
2019-02-11T23:20:13.195Z,24.47
2019-02-11T23:22:41.690Z,22.70
2019-02-11T23:25:10.212Z,23.80
2019-02-11T23:27:38.600Z,23.97
2019-02-11T23:30:13.482Z,22.70
2019-02-11T23:32:39.510Z,23.03
2019-02-11T23:35:07.966Z,26.67
2019-02-11T23:37:36.853Z,23.27
2019-02-11T23:40:07.870Z,24.23
2019-02-11T23:42:36.270Z,27.63
2019-02-11T23:45:07.825Z,22.73
2019-02-11T23:47:36.510Z,23.50
2019-02-11T23:50:07.663Z,23.10
2019-02-11T23:52:36.130Z,22.80
2019-02-11T23:55:06.993Z,22.27
2019-02-11T23:57:35.766Z,23.20
